createdAt,value
2023-04-28T00:00:55.900Z,94828.00
2023-04-28T00:01:55.928Z,94826.00
2023-04-28T00:02:55.989Z,94824.00
2023-04-28T00:03:56.099Z,94822.00
2023-04-28T00:04:56.168Z,94820.00
2023-04-28T00:05:55.958Z,94820.00
2023-04-28T00:06:55.879Z,94822.00
2023-04-28T00:07:55.836Z,94822.00
2023-04-28T00:08:55.851Z,94824.00
2023-04-28T00:09:55.842Z,94824.00
2023-04-28T00:10:55.822Z,94830.00
2023-04-28T00:11:55.843Z,94834.00
2023-04-28T00:12:55.815Z,94832.00
2023-04-28T00:13:55.810Z,94828.00
2023-04-28T00:14:55.820Z,94830.00
2023-04-28T00:15:55.847Z,94824.00
2023-04-28T00:16:56.415Z,94824.00
2023-04-28T00:17:55.924Z,94822.00
2023-04-28T00:18:55.792Z,94824.00
2023-04-28T00:19:55.788Z,94826.00
2023-04-28T00:20:55.762Z,94826.00
2023-04-28T00:21:55.852Z,94826.00
2023-04-28T00:22:55.793Z,94826.00
2023-04-28T00:23:55.745Z,94828.00
2023-04-28T00:24:55.739Z,94828.00
2023-04-28T00:25:55.734Z,94832.00
2023-04-28T00:26:55.734Z,94832.00
2023-04-28T00:27:55.701Z,94835.00
2023-04-28T00:28:55.704Z,94834.00
2023-04-28T00:29:55.708Z,94832.00
2023-04-28T00:30:55.689Z,94834.00
2023-04-28T00:31:56.348Z,94832.00
2023-04-28T00:32:55.793Z,94828.00
2023-04-28T00:33:55.675Z,94826.00
2023-04-28T00:34:55.675Z,94830.00
2023-04-28T00:35:55.643Z,94830.00
2023-04-28T00:36:55.679Z,94834.00
2023-04-28T00:37:55.664Z,94832.00
2023-04-28T00:38:55.678Z,94834.00
2023-04-28T00:39:55.669Z,94834.00
2023-04-28T00:40:56.276Z,94834.00
2023-04-28T00:41:55.614Z,94834.00
2023-04-28T00:42:55.627Z,94832.00
2023-04-28T00:43:55.612Z,94830.00
2023-04-28T00:44:55.599Z,94830.00
2023-04-28T00:45:55.694Z,94828.00
2023-04-28T00:46:55.559Z,94826.00
2023-04-28T00:47:55.580Z,94828.00
2023-04-28T00:48:55.572Z,94828.00
2023-04-28T00:49:55.534Z,94828.00
2023-04-28T00:50:55.577Z,94828.00
2023-04-28T00:51:55.564Z,94826.00
2023-04-28T00:52:55.526Z,94826.00
2023-04-28T00:53:55.566Z,94824.00
2023-04-28T00:54:55.529Z,94826.00
2023-04-28T00:55:55.523Z,94826.00
2023-04-28T00:56:55.510Z,94826.00
2023-04-28T00:57:55.533Z,94826.00
2023-04-28T00:58:55.484Z,94826.00
2023-04-28T00:59:55.500Z,94824.00
2023-04-28T01:00:55.584Z,94818.00
2023-04-28T01:01:55.512Z,94818.00
2023-04-28T01:02:55.710Z,94816.00
2023-04-28T01:03:55.693Z,94816.00
2023-04-28T01:04:55.599Z,94818.00
2023-04-28T01:05:55.651Z,94818.00
2023-04-28T01:06:55.636Z,94816.00
2023-04-28T01:07:55.655Z,94812.00
2023-04-28T01:08:55.687Z,94810.00
2023-04-28T01:09:55.720Z,94812.00
2023-04-28T01:10:55.725Z,94808.00
2023-04-28T01:11:55.781Z,94810.00
2023-04-28T01:12:55.776Z,94808.00
2023-04-28T01:13:55.791Z,94812.00
2023-04-28T01:14:55.842Z,94810.00
2023-04-28T01:15:55.904Z,94806.00
2023-04-28T01:16:56.009Z,94802.00
2023-04-28T01:17:55.988Z,94800.00
2023-04-28T01:18:56.038Z,94796.00
2023-04-28T01:19:56.045Z,94798.00
2023-04-28T01:20:56.143Z,94798.00
2023-04-28T01:21:56.119Z,94796.00
2023-04-28T01:22:56.163Z,94796.00
2023-04-28T01:23:56.209Z,94798.00
2023-04-28T01:24:56.279Z,94798.00
2023-04-28T01:25:56.300Z,94798.00
2023-04-28T01:26:56.395Z,94798.00
2023-04-28T01:27:56.448Z,94794.00
2023-04-28T01:28:56.456Z,94790.00
2023-04-28T01:29:56.497Z,94788.00
2023-04-28T01:30:56.584Z,94790.00
2023-04-28T01:31:56.628Z,94786.00
2023-04-28T01:32:56.739Z,94786.00
2023-04-28T01:33:56.710Z,94788.00
2023-04-28T01:34:56.731Z,94786.00
2023-04-28T01:35:56.786Z,94784.00
2023-04-28T01:36:56.806Z,94784.00
2023-04-28T01:37:56.824Z,94782.00
2023-04-28T01:38:56.896Z,94782.00
2023-04-28T01:39:56.916Z,94784.00
2023-04-28T01:40:56.944Z,94788.00
2023-04-28T01:41:56.971Z,94788.00
2023-04-28T01:42:57.020Z,94792.00
2023-04-28T01:43:57.064Z,94794.00
2023-04-28T01:44:57.116Z,94792.00
2023-04-28T01:45:57.215Z,94794.00
2023-04-28T01:46:57.255Z,94792.00
2023-04-28T01:47:57.349Z,94790.00
2023-04-28T01:48:57.341Z,94794.00
2023-04-28T01:49:57.422Z,94792.00
2023-04-28T01:50:57.495Z,94788.00
2023-04-28T01:51:57.499Z,94788.00
2023-04-28T01:52:57.602Z,94788.00
2023-04-28T01:53:57.636Z,94792.00
2023-04-28T01:54:57.666Z,94792.00
2023-04-28T01:55:57.782Z,94794.00
2023-04-28T01:56:57.794Z,94794.00
2023-04-28T01:57:57.818Z,94796.00
2023-04-28T01:58:57.865Z,94794.00
2023-04-28T01:59:57.923Z,94794.00
2023-04-28T02:00:58.044Z,94794.00
2023-04-28T02:01:58.051Z,94796.00
2023-04-28T02:02:58.167Z,94794.00
2023-04-28T02:03:58.231Z,94798.00
2023-04-28T02:04:58.274Z,94798.00
2023-04-28T02:05:58.221Z,94798.00
2023-04-28T02:06:58.238Z,94792.00
2023-04-28T02:07:58.282Z,94794.00
2023-04-28T02:08:58.336Z,94790.00
2023-04-28T02:09:58.384Z,94786.00
2023-04-28T02:10:58.460Z,94784.00
2023-04-28T02:11:58.491Z,94782.00
2023-04-28T02:12:58.529Z,94782.00
2023-04-28T02:13:58.570Z,94782.00
2023-04-28T02:14:58.638Z,94779.00
2023-04-28T02:15:58.721Z,94780.00
2023-04-28T02:16:58.736Z,94779.00
2023-04-28T02:17:58.781Z,94777.00
2023-04-28T02:18:58.770Z,94775.00
2023-04-28T02:19:58.859Z,94773.00
2023-04-28T02:20:58.874Z,94771.00
2023-04-28T02:21:58.951Z,94765.00
2023-04-28T02:22:58.942Z,94761.00
2023-04-28T02:23:59.008Z,94759.00
2023-04-28T02:24:59.032Z,94761.00
2023-04-28T02:25:59.047Z,94765.00
2023-04-28T02:26:59.092Z,94767.00
2023-04-28T02:27:59.139Z,94765.00
2023-04-28T02:28:59.152Z,94767.00
2023-04-28T02:29:59.199Z,94763.00
2023-04-28T02:30:59.305Z,94759.00
2023-04-28T02:31:59.315Z,94755.00
2023-04-28T02:32:59.369Z,94759.00
2023-04-28T02:33:59.368Z,94761.00
2023-04-28T02:34:59.427Z,94763.00
2023-04-28T02:35:59.537Z,94771.00
2023-04-28T02:36:59.506Z,94769.00
2023-04-28T02:37:59.585Z,94771.00
2023-04-28T02:38:59.649Z,94767.00
2023-04-28T02:39:59.692Z,94767.00
2023-04-28T02:40:59.825Z,94763.00
2023-04-28T02:41:59.820Z,94761.00
2023-04-28T02:42:59.912Z,94763.00
2023-04-28T02:43:59.919Z,94761.00
2023-04-28T02:45:00.028Z,94761.00
2023-04-28T02:46:00.148Z,94763.00
2023-04-28T02:47:00.205Z,94761.00
2023-04-28T02:48:00.228Z,94755.00
2023-04-28T02:49:00.189Z,94755.00
2023-04-28T02:50:00.265Z,94747.00
2023-04-28T02:51:00.333Z,94749.00
2023-04-28T02:52:00.361Z,94751.00
2023-04-28T02:53:00.427Z,94747.00
2023-04-28T02:54:00.492Z,94751.00
2023-04-28T02:55:00.534Z,94745.00
2023-04-28T02:56:00.607Z,94745.00
2023-04-28T02:57:00.666Z,94743.00
2023-04-28T02:58:00.734Z,94737.00
2023-04-28T02:59:00.795Z,94741.00
2023-04-28T03:00:00.875Z,94741.00
2023-04-28T03:01:00.942Z,94739.00
2023-04-28T03:02:01.024Z,94737.00
2023-04-28T03:03:01.175Z,94735.00
2023-04-28T03:04:01.523Z,94733.00
2023-04-28T03:05:01.277Z,94733.00
2023-04-28T03:06:01.254Z,94732.00
2023-04-28T03:07:01.295Z,94730.00
2023-04-28T03:08:01.338Z,94730.00
2023-04-28T03:09:01.411Z,94730.00
2023-04-28T03:10:01.496Z,94730.00
2023-04-28T03:11:01.554Z,94732.00
2023-04-28T03:12:01.624Z,94732.00
2023-04-28T03:13:01.669Z,94730.00
2023-04-28T03:14:01.724Z,94728.00
2023-04-28T03:15:01.794Z,94726.00
2023-04-28T03:16:01.948Z,94724.00
2023-04-28T03:17:01.926Z,94724.00
2023-04-28T03:18:01.997Z,94722.00
2023-04-28T03:19:02.116Z,94720.00
2023-04-28T03:20:02.116Z,94720.00
2023-04-28T03:21:02.195Z,94718.00
2023-04-28T03:22:02.246Z,94714.00
2023-04-28T03:23:02.293Z,94710.00
2023-04-28T03:24:04.800Z,94712.00
2023-04-28T03:25:02.371Z,94712.00
2023-04-28T03:26:02.402Z,94716.00
2023-04-28T03:27:02.403Z,94720.00
2023-04-28T03:28:02.333Z,94722.00
2023-04-28T03:29:02.332Z,94724.00
2023-04-28T03:30:02.335Z,94724.00
2023-04-28T03:31:02.325Z,94724.00
2023-04-28T03:32:02.347Z,94724.00
2023-04-28T03:33:02.397Z,94722.00
2023-04-28T03:34:02.304Z,94716.00
2023-04-28T03:35:02.297Z,94714.00
2023-04-28T03:36:02.319Z,94716.00
2023-04-28T03:37:02.281Z,94716.00
2023-04-28T03:38:02.284Z,94716.00
2023-04-28T03:39:02.274Z,94720.00
2023-04-28T03:40:02.242Z,94718.00
2023-04-28T03:41:02.282Z,94726.00
2023-04-28T03:42:02.228Z,94728.00
2023-04-28T03:43:04.458Z,94728.00
2023-04-28T03:44:02.409Z,94720.00
2023-04-28T03:45:02.495Z,94718.00
2023-04-28T03:46:02.623Z,94720.00
2023-04-28T03:47:02.866Z,94720.00
2023-04-28T03:48:02.697Z,94712.00
2023-04-28T03:49:02.741Z,94720.00
2023-04-28T03:50:02.750Z,94722.00
2023-04-28T03:51:02.810Z,94722.00
2023-04-28T03:52:03.354Z,94720.00
2023-04-28T03:53:02.919Z,94720.00
2023-04-28T03:54:02.977Z,94718.00
2023-04-28T03:55:03.047Z,94716.00
2023-04-28T03:56:03.123Z,94714.00
2023-04-28T03:57:03.172Z,94716.00
2023-04-28T03:58:03.244Z,94716.00
2023-04-28T03:59:03.312Z,94716.00
2023-04-28T04:00:03.360Z,94714.00
2023-04-28T04:01:03.457Z,94716.00
2023-04-28T04:02:03.517Z,94712.00
2023-04-28T04:03:03.709Z,94712.00
2023-04-28T04:04:03.782Z,94716.00
2023-04-28T04:05:03.881Z,94720.00
2023-04-28T04:06:03.752Z,94720.00
2023-04-28T04:07:03.814Z,94720.00
2023-04-28T04:08:03.891Z,94720.00
2023-04-28T04:09:03.952Z,94716.00
2023-04-28T04:10:04.538Z,94714.00
2023-04-28T04:11:04.056Z,94714.00
2023-04-28T04:12:04.124Z,94714.00
2023-04-28T04:13:04.185Z,94714.00
2023-04-28T04:14:04.259Z,94718.00
2023-04-28T04:15:04.274Z,94720.00
2023-04-28T04:16:04.495Z,94718.00
2023-04-28T04:17:04.403Z,94720.00
2023-04-28T04:18:04.569Z,94720.00
2023-04-28T04:19:04.555Z,94720.00
2023-04-28T04:20:04.588Z,94722.00
2023-04-28T04:21:04.643Z,94722.00
2023-04-28T04:22:04.720Z,94724.00
2023-04-28T04:23:04.788Z,94726.00
2023-04-28T04:24:04.853Z,94726.00
2023-04-28T04:25:04.903Z,94726.00
2023-04-28T04:26:04.952Z,94726.00
2023-04-28T04:27:05.065Z,94728.00
2023-04-28T04:28:05.082Z,94730.00
2023-04-28T04:29:05.142Z,94730.00
2023-04-28T04:30:05.214Z,94728.00
2023-04-28T04:31:05.409Z,94724.00
2023-04-28T04:32:05.330Z,94724.00
2023-04-28T04:33:05.402Z,94724.00
2023-04-28T04:34:05.445Z,94720.00
2023-04-28T04:35:05.535Z,94722.00
2023-04-28T04:36:05.589Z,94724.00
2023-04-28T04:37:05.657Z,94722.00
2023-04-28T04:38:05.728Z,94720.00
2023-04-28T04:39:05.748Z,94718.00
2023-04-28T04:40:05.829Z,94720.00
2023-04-28T04:41:05.882Z,94724.00
2023-04-28T04:42:16.881Z,94722.00
2023-04-28T04:43:06.939Z,94722.00
2023-04-28T04:44:05.941Z,94722.00
2023-04-28T04:45:05.931Z,94722.00
2023-04-28T04:46:05.946Z,94722.00
2023-04-28T04:47:05.917Z,94720.00
2023-04-28T04:48:05.988Z,94722.00
2023-04-28T04:49:05.888Z,94720.00
2023-04-28T04:50:05.887Z,94716.00
2023-04-28T04:51:05.876Z,94718.00
2023-04-28T04:52:05.945Z,94720.00
2023-04-28T04:53:06.006Z,94724.00
2023-04-28T04:54:06.078Z,94728.00
2023-04-28T04:55:06.112Z,94728.00
2023-04-28T04:56:06.944Z,94726.00
2023-04-28T04:57:06.271Z,94728.00
2023-04-28T04:58:06.301Z,94730.00
2023-04-28T04:59:06.383Z,94737.00
2023-04-28T05:00:06.437Z,94743.00
2023-04-28T05:01:06.489Z,94743.00
2023-04-28T05:02:06.626Z,94745.00
2023-04-28T05:03:06.791Z,94747.00
2023-04-28T05:04:06.909Z,94745.00
2023-04-28T05:05:19.657Z,94747.00
2023-04-28T05:06:07.751Z,94747.00
2023-04-28T05:07:06.735Z,94747.00
2023-04-28T05:08:06.750Z,94749.00
2023-04-28T05:09:06.753Z,94753.00
2023-04-28T05:10:06.730Z,94755.00
2023-04-28T05:11:06.694Z,94757.00
2023-04-28T05:12:06.713Z,94759.00
2023-04-28T05:13:06.733Z,94763.00
2023-04-28T05:14:06.707Z,94769.00
2023-04-28T05:15:06.772Z,94769.00
2023-04-28T05:16:07.435Z,94769.00
2023-04-28T05:17:06.930Z,94773.00
2023-04-28T05:18:06.981Z,94775.00
2023-04-28T05:19:07.048Z,94782.00
2023-04-28T05:20:07.058Z,94777.00
2023-04-28T05:21:07.150Z,94779.00
2023-04-28T05:22:07.165Z,94780.00
2023-04-28T05:23:07.237Z,94779.00
2023-04-28T05:24:07.339Z,94779.00
2023-04-28T05:25:07.367Z,94779.00
2023-04-28T05:26:07.465Z,94779.00
2023-04-28T05:27:07.473Z,94782.00
2023-04-28T05:28:07.688Z,94784.00
2023-04-28T05:29:07.759Z,94786.00
2023-04-28T05:30:08.490Z,94784.00
2023-04-28T05:31:07.688Z,94786.00
2023-04-28T05:32:07.852Z,94784.00
2023-04-28T05:33:07.997Z,94788.00
2023-04-28T05:34:08.960Z,94786.00
2023-04-28T05:35:07.993Z,94788.00
2023-04-28T05:36:08.062Z,94790.00
2023-04-28T05:37:08.063Z,94790.00
2023-04-28T05:38:08.109Z,94792.00
2023-04-28T05:39:08.142Z,94796.00
2023-04-28T05:40:08.213Z,94796.00
2023-04-28T05:41:08.228Z,94796.00
2023-04-28T05:42:08.403Z,94794.00
2023-04-28T05:43:08.906Z,94798.00
2023-04-28T05:44:08.330Z,94802.00
2023-04-28T05:45:08.349Z,94804.00
2023-04-28T05:46:18.119Z,94806.00
2023-04-28T05:47:09.354Z,94810.00
2023-04-28T05:48:08.438Z,94806.00
2023-04-28T05:49:08.439Z,94810.00
2023-04-28T05:50:08.311Z,94810.00
2023-04-28T05:51:08.353Z,94810.00
2023-04-28T05:52:08.342Z,94808.00
2023-04-28T05:53:08.298Z,94808.00
2023-04-28T05:54:08.326Z,94816.00
2023-04-28T05:55:08.280Z,94818.00
2023-04-28T05:56:08.301Z,94820.00
2023-04-28T05:57:08.296Z,94824.00
2023-04-28T05:58:08.347Z,94826.00
2023-04-28T05:59:08.353Z,94826.00
2023-04-28T06:00:08.399Z,94824.00
2023-04-28T06:01:08.410Z,94822.00
2023-04-28T06:02:08.560Z,94824.00
2023-04-28T06:03:08.600Z,94828.00
2023-04-28T06:04:08.688Z,94832.00
2023-04-28T06:05:08.824Z,94830.00
2023-04-28T06:06:10.179Z,94834.00
2023-04-28T06:07:08.726Z,94835.00
2023-04-28T06:08:08.699Z,94835.00
2023-04-28T06:09:08.688Z,94839.00
2023-04-28T06:10:08.777Z,94837.00
2023-04-28T06:11:08.774Z,94835.00
2023-04-28T06:12:08.915Z,94839.00
2023-04-28T06:13:08.871Z,94841.00
2023-04-28T06:14:08.901Z,94841.00
2023-04-28T06:15:08.958Z,94841.00
2023-04-28T06:16:09.040Z,94843.00
2023-04-28T06:17:09.061Z,94847.00
2023-04-28T06:18:09.275Z,94849.00
2023-04-28T06:19:09.137Z,94847.00
2023-04-28T06:20:09.168Z,94849.00
2023-04-28T06:21:09.181Z,94851.00
2023-04-28T06:22:09.249Z,94851.00
2023-04-28T06:23:09.311Z,94851.00
2023-04-28T06:24:09.331Z,94851.00
2023-04-28T06:25:09.368Z,94851.00
2023-04-28T06:26:09.435Z,94851.00
2023-04-28T06:27:09.537Z,94849.00
2023-04-28T06:28:09.503Z,94847.00
2023-04-28T06:29:09.567Z,94849.00
2023-04-28T06:30:09.573Z,94847.00
2023-04-28T06:31:09.689Z,94843.00
2023-04-28T06:32:09.692Z,94845.00
2023-04-28T06:33:09.726Z,94845.00
2023-04-28T06:34:09.793Z,94851.00
2023-04-28T06:35:09.843Z,94853.00
2023-04-28T06:36:09.978Z,94851.00
2023-04-28T06:37:10.032Z,94847.00
2023-04-28T06:38:10.001Z,94851.00
2023-04-28T06:39:10.015Z,94851.00
2023-04-28T06:40:10.116Z,94849.00
2023-04-28T06:41:10.142Z,94851.00
2023-04-28T06:42:10.181Z,94849.00
2023-04-28T06:43:10.289Z,94851.00
2023-04-28T06:44:10.318Z,94851.00
2023-04-28T06:45:10.358Z,94851.00
2023-04-28T06:46:10.435Z,94851.00
2023-04-28T06:47:10.545Z,94853.00
2023-04-28T06:48:10.652Z,94849.00
2023-04-28T06:49:10.849Z,94851.00
2023-04-28T06:50:10.691Z,94851.00
2023-04-28T06:51:10.707Z,94851.00
2023-04-28T06:52:10.790Z,94849.00
2023-04-28T06:53:10.832Z,94851.00
2023-04-28T06:54:10.909Z,94849.00
2023-04-28T06:55:11.040Z,94849.00
2023-04-28T06:56:11.612Z,94847.00
2023-04-28T06:57:11.117Z,94847.00
2023-04-28T06:58:11.205Z,94845.00
2023-04-28T06:59:11.223Z,94845.00
2023-04-28T07:00:11.233Z,94847.00
2023-04-28T07:01:11.377Z,94845.00
2023-04-28T07:02:11.445Z,94843.00
2023-04-28T07:03:11.621Z,94843.00
2023-04-28T07:04:11.630Z,94843.00
2023-04-28T07:05:11.570Z,94845.00
2023-04-28T07:06:11.500Z,94845.00
2023-04-28T07:07:11.542Z,94843.00
2023-04-28T07:08:11.594Z,94843.00
2023-04-28T07:09:11.565Z,94845.00
2023-04-28T07:10:11.574Z,94843.00
2023-04-28T07:11:11.600Z,94843.00
2023-04-28T07:12:11.594Z,94847.00
2023-04-28T07:13:11.628Z,94847.00
2023-04-28T07:14:11.686Z,94849.00
2023-04-28T07:15:11.688Z,94847.00
2023-04-28T07:16:11.760Z,94847.00
2023-04-28T07:17:11.824Z,94845.00
2023-04-28T07:18:11.874Z,94843.00
2023-04-28T07:19:11.846Z,94843.00
2023-04-28T07:20:12.141Z,94845.00
2023-04-28T07:21:11.973Z,94845.00
2023-04-28T07:22:11.893Z,94847.00
2023-04-28T07:23:11.906Z,94843.00
2023-04-28T07:24:11.887Z,94845.00
2023-04-28T07:25:11.930Z,94851.00
2023-04-28T07:26:14.299Z,94851.00
2023-04-28T07:27:11.939Z,94849.00
2023-04-28T07:28:11.953Z,94851.00
2023-04-28T07:29:11.917Z,94851.00
2023-04-28T07:30:26.046Z,94849.00
2023-04-28T07:31:12.929Z,94853.00
2023-04-28T07:32:12.532Z,94853.00
2023-04-28T07:33:11.979Z,94857.00
2023-04-28T07:34:11.904Z,94849.00
2023-04-28T07:35:11.939Z,94851.00
2023-04-28T07:36:11.890Z,94853.00
2023-04-28T07:37:11.883Z,94849.00
2023-04-28T07:38:11.875Z,94853.00
2023-04-28T07:39:11.860Z,94857.00
2023-04-28T07:40:11.911Z,94857.00
2023-04-28T07:41:11.910Z,94863.00
2023-04-28T07:42:11.817Z,94865.00
2023-04-28T07:43:11.817Z,94869.00
2023-04-28T07:44:11.871Z,94871.00
2023-04-28T07:45:11.845Z,94873.00
2023-04-28T07:46:11.978Z,94877.00
2023-04-28T07:47:11.839Z,94875.00
2023-04-28T07:48:11.881Z,94871.00
2023-04-28T07:49:11.880Z,94879.00
2023-04-28T07:50:11.872Z,94875.00
2023-04-28T07:51:11.871Z,94871.00
2023-04-28T07:52:11.889Z,94867.00
2023-04-28T07:53:12.473Z,94869.00
2023-04-28T07:54:11.958Z,94873.00
2023-04-28T07:55:12.035Z,94875.00
2023-04-28T07:56:12.096Z,94875.00
2023-04-28T07:57:12.127Z,94879.00
2023-04-28T07:58:12.967Z,94877.00
2023-04-28T07:59:12.208Z,94877.00
2023-04-28T08:00:12.317Z,94875.00
2023-04-28T08:01:12.319Z,94877.00
2023-04-28T08:02:12.386Z,94875.00
2023-04-28T08:03:12.601Z,94875.00
2023-04-28T08:04:12.502Z,94877.00
2023-04-28T08:05:12.720Z,94881.00
2023-04-28T08:06:12.553Z,94882.00
2023-04-28T08:07:12.492Z,94881.00
2023-04-28T08:08:12.503Z,94882.00
2023-04-28T08:09:12.492Z,94884.00
2023-04-28T08:10:12.567Z,94886.00
2023-04-28T08:11:12.499Z,94884.00
2023-04-28T08:12:12.574Z,94886.00
2023-04-28T08:13:12.536Z,94886.00
2023-04-28T08:14:12.500Z,94886.00
2023-04-28T08:15:12.511Z,94884.00
2023-04-28T08:16:12.568Z,94884.00
2023-04-28T08:17:12.527Z,94884.00
2023-04-28T08:18:12.609Z,94884.00
2023-04-28T08:19:12.599Z,94884.00
2023-04-28T08:20:12.568Z,94884.00
2023-04-28T08:21:12.623Z,94888.00
2023-04-28T08:22:12.608Z,94886.00
2023-04-28T08:23:12.934Z,94896.00
2023-04-28T08:24:12.629Z,94888.00
2023-04-28T08:25:12.651Z,94888.00
2023-04-28T08:26:12.622Z,94888.00
2023-04-28T08:27:12.626Z,94886.00
2023-04-28T08:28:12.697Z,94882.00
2023-04-28T08:29:12.629Z,94884.00
2023-04-28T08:30:12.694Z,94886.00
2023-04-28T08:31:12.741Z,94886.00
2023-04-28T08:32:12.741Z,94884.00
2023-04-28T08:33:13.039Z,94886.00
2023-04-28T08:34:15.165Z,94884.00
2023-04-28T08:35:12.774Z,94888.00
2023-04-28T08:36:13.457Z,94888.00
2023-04-28T08:37:12.826Z,94896.00
2023-04-28T08:38:12.795Z,94888.00
2023-04-28T08:39:13.717Z,94886.00
2023-04-28T08:40:12.792Z,94884.00
2023-04-28T08:41:12.786Z,94882.00
2023-04-28T08:42:12.797Z,94882.00
2023-04-28T08:43:12.722Z,94886.00
2023-04-28T08:44:12.735Z,94884.00
2023-04-28T08:45:12.879Z,94884.00
2023-04-28T08:46:13.473Z,94882.00
2023-04-28T08:47:12.792Z,94881.00
2023-04-28T08:48:12.767Z,94881.00
2023-04-28T08:49:12.666Z,94881.00
2023-04-28T08:50:12.656Z,94881.00
2023-04-28T08:51:12.749Z,94879.00
2023-04-28T08:52:12.973Z,94879.00
2023-04-28T08:53:12.652Z,94879.00
2023-04-28T08:54:25.655Z,94884.00
2023-04-28T08:55:13.713Z,94881.00
2023-04-28T08:56:12.634Z,94882.00
2023-04-28T08:57:12.634Z,94882.00
2023-04-28T08:58:12.625Z,94882.00
2023-04-28T08:59:12.618Z,94882.00
2023-04-28T09:00:12.613Z,94882.00
2023-04-28T09:01:12.601Z,94882.00
2023-04-28T09:02:12.649Z,94882.00
2023-04-28T09:03:12.686Z,94881.00
2023-04-28T09:04:14.363Z,94884.00
2023-04-28T09:05:12.830Z,94884.00
2023-04-28T09:06:12.574Z,94888.00
2023-04-28T09:07:12.680Z,94888.00
2023-04-28T09:08:12.566Z,94886.00
2023-04-28T09:09:12.596Z,94884.00
2023-04-28T09:10:12.677Z,94882.00
2023-04-28T09:11:12.691Z,94882.00
2023-04-28T09:12:12.753Z,94882.00
2023-04-28T09:13:12.802Z,94882.00
2023-04-28T09:14:12.878Z,94879.00
2023-04-28T09:15:12.973Z,94877.00
2023-04-28T09:16:13.022Z,94877.00
2023-04-28T09:17:13.124Z,94875.00
2023-04-28T09:18:13.129Z,94875.00
2023-04-28T09:19:13.220Z,94873.00
2023-04-28T09:20:13.241Z,94875.00
2023-04-28T09:21:13.308Z,94873.00
2023-04-28T09:23:13.343Z,94871.00
2023-04-28T09:24:13.380Z,94871.00
2023-04-28T09:25:13.352Z,94873.00
2023-04-28T09:26:13.381Z,94873.00
2023-04-28T09:27:13.320Z,94869.00
2023-04-28T09:28:13.365Z,94869.00
2023-04-28T09:29:13.329Z,94871.00
2023-04-28T09:30:13.304Z,94869.00
2023-04-28T09:31:13.308Z,94875.00
2023-04-28T09:32:13.372Z,94871.00
2023-04-28T09:33:13.350Z,94871.00
2023-04-28T09:34:13.285Z,94869.00
2023-04-28T09:35:13.998Z,94865.00
2023-04-28T09:36:13.409Z,94865.00
2023-04-28T09:37:13.401Z,94865.00
2023-04-28T09:38:13.283Z,94867.00
2023-04-28T09:39:13.269Z,94867.00
2023-04-28T09:40:13.261Z,94867.00
2023-04-28T09:41:13.262Z,94871.00
2023-04-28T09:42:13.235Z,94871.00
2023-04-28T09:43:21.334Z,94871.00
2023-04-28T09:44:15.145Z,94873.00
2023-04-28T09:45:13.216Z,94869.00
2023-04-28T09:46:13.247Z,94867.00
2023-04-28T09:47:13.220Z,94871.00
2023-04-28T09:48:13.252Z,94867.00
2023-04-28T09:49:13.184Z,94867.00
2023-04-28T09:50:13.170Z,94867.00
2023-04-28T09:51:13.330Z,94867.00
2023-04-28T09:52:13.175Z,94867.00
2023-04-28T09:53:13.169Z,94869.00
2023-04-28T09:54:13.253Z,94869.00
2023-04-28T09:55:13.172Z,94873.00
2023-04-28T09:56:13.275Z,94875.00
2023-04-28T09:57:13.248Z,94877.00
2023-04-28T09:58:13.533Z,94877.00
2023-04-28T09:59:13.331Z,94877.00
2023-04-28T10:00:13.399Z,94873.00
2023-04-28T10:01:13.558Z,94875.00
2023-04-28T10:02:39.999Z,94873.00
2023-04-28T10:03:14.604Z,94877.00
2023-04-28T10:04:13.572Z,94873.00
2023-04-28T10:05:13.510Z,94869.00
2023-04-28T10:06:13.443Z,94865.00
2023-04-28T10:07:13.420Z,94863.00
2023-04-28T10:08:13.451Z,94863.00
2023-04-28T10:09:13.460Z,94859.00
2023-04-28T10:10:13.563Z,94861.00
2023-04-28T10:11:13.441Z,94861.00
2023-04-28T10:12:13.472Z,94859.00
2023-04-28T10:13:13.546Z,94861.00
2023-04-28T10:14:13.585Z,94861.00
2023-04-28T10:15:13.734Z,94859.00
2023-04-28T10:16:13.717Z,94859.00
2023-04-28T10:17:13.815Z,94859.00
2023-04-28T10:18:13.845Z,94855.00
2023-04-28T10:19:14.490Z,94859.00
2023-04-28T10:20:14.052Z,94859.00
2023-04-28T10:21:14.042Z,94861.00
2023-04-28T10:22:14.094Z,94859.00
2023-04-28T10:23:14.163Z,94857.00
2023-04-28T10:24:14.217Z,94853.00
2023-04-28T10:25:14.229Z,94853.00
2023-04-28T10:26:14.239Z,94855.00
2023-04-28T10:27:14.262Z,94853.00
2023-04-28T10:28:14.253Z,94855.00
2023-04-28T10:29:19.514Z,94853.00
2023-04-28T10:30:23.388Z,94851.00
2023-04-28T10:31:16.136Z,94851.00
2023-04-28T10:32:14.381Z,94851.00
2023-04-28T10:33:14.392Z,94851.00
2023-04-28T10:34:14.278Z,94849.00
2023-04-28T10:35:14.251Z,94845.00
2023-04-28T10:36:14.996Z,94843.00
2023-04-28T10:37:14.202Z,94845.00
2023-04-28T10:38:14.407Z,94841.00
2023-04-28T10:39:14.255Z,94839.00
2023-04-28T10:40:14.293Z,94837.00
2023-04-28T10:41:14.360Z,94837.00
2023-04-28T10:42:14.395Z,94835.00
2023-04-28T10:43:14.393Z,94835.00
2023-04-28T10:44:14.454Z,94834.00
2023-04-28T10:45:14.484Z,94832.00
2023-04-28T10:46:14.537Z,94828.00
2023-04-28T10:47:14.571Z,94828.00
2023-04-28T10:48:14.581Z,94826.00
2023-04-28T10:49:14.732Z,94826.00
2023-04-28T10:50:14.638Z,94830.00
2023-04-28T10:51:14.650Z,94830.00
2023-04-28T10:52:14.657Z,94830.00
2023-04-28T10:53:14.670Z,94828.00
2023-04-28T10:54:14.716Z,94824.00
2023-04-28T10:55:22.072Z,94824.00
2023-04-28T10:56:15.696Z,94822.00
2023-04-28T10:57:14.691Z,94820.00
2023-04-28T10:58:14.688Z,94822.00
2023-04-28T10:59:14.695Z,94822.00
2023-04-28T11:00:14.663Z,94820.00
2023-04-28T11:01:14.678Z,94818.00
2023-04-28T11:02:14.673Z,94824.00
2023-04-28T11:03:14.763Z,94820.00
2023-04-28T11:04:14.789Z,94818.00
2023-04-28T11:05:14.837Z,94818.00
2023-04-28T11:06:14.635Z,94818.00
2023-04-28T11:07:14.676Z,94816.00
2023-04-28T11:08:14.602Z,94816.00
2023-04-28T11:09:14.636Z,94816.00
2023-04-28T11:10:14.583Z,94814.00
2023-04-28T11:11:14.577Z,94810.00
2023-04-28T11:12:14.579Z,94806.00
2023-04-28T11:13:14.587Z,94800.00
2023-04-28T11:14:14.570Z,94802.00
2023-04-28T11:15:14.584Z,94800.00
2023-04-28T11:16:14.573Z,94800.00
2023-04-28T11:17:14.585Z,94798.00
2023-04-28T11:18:14.668Z,94794.00
2023-04-28T11:19:14.564Z,94794.00
2023-04-28T11:20:14.514Z,94788.00
2023-04-28T11:21:14.527Z,94786.00
2023-04-28T11:22:14.561Z,94784.00
2023-04-28T11:23:14.526Z,94784.00
2023-04-28T11:24:14.534Z,94784.00
2023-04-28T11:25:14.498Z,94782.00
2023-04-28T11:26:14.570Z,94782.00
2023-04-28T11:27:14.509Z,94782.00
2023-04-28T11:28:14.482Z,94777.00
2023-04-28T11:29:14.471Z,94777.00
2023-04-28T11:30:14.474Z,94777.00
2023-04-28T11:31:14.490Z,94777.00
2023-04-28T11:32:14.589Z,94775.00
2023-04-28T11:33:14.539Z,94771.00
2023-04-28T11:34:14.517Z,94769.00
2023-04-28T11:35:14.544Z,94771.00
2023-04-28T11:36:14.549Z,94773.00
2023-04-28T11:37:14.822Z,94782.00
2023-04-28T11:38:14.652Z,94790.00
2023-04-28T11:39:14.712Z,94796.00
2023-04-28T11:40:14.792Z,94802.00
2023-04-28T11:41:14.806Z,94800.00
2023-04-28T11:42:14.866Z,94796.00
2023-04-28T11:43:14.892Z,94794.00
2023-04-28T11:44:14.976Z,94792.00
2023-04-28T11:45:15.010Z,94792.00
2023-04-28T11:46:15.105Z,94792.00